sensor_id;sensor_type;location;lat;lon;timestamp;P1;durP1;ratioP1;P2;durP2;ratioP2
72408;SDS011;60402;48.082;11.628;2023-12-14T00:00:12;0.40;;;0.30;;
72408;SDS011;60402;48.082;11.628;2023-12-14T00:02:59;1.58;;;0.50;;
72408;SDS011;60402;48.082;11.628;2023-12-14T00:09:27;0.25;;;0.22;;
72408;SDS011;60402;48.082;11.628;2023-12-14T00:12:12;0.95;;;0.50;;
72408;SDS011;60402;48.082;11.628;2023-12-14T00:14:58;1.00;;;0.30;;
72408;SDS011;60402;48.082;11.628;2023-12-14T00:17:44;1.00;;;0.50;;
72408;SDS011;60402;48.082;11.628;2023-12-14T00:20:29;1.05;;;0.40;;
72408;SDS011;60402;48.082;11.628;2023-12-14T00:23:15;0.70;;;0.50;;
72408;SDS011;60402;48.082;11.628;2023-12-14T00:26:01;1.02;;;0.43;;
72408;SDS011;60402;48.082;11.628;2023-12-14T00:28:46;0.73;;;0.38;;
72408;SDS011;60402;48.082;11.628;2023-12-14T00:31:32;0.82;;;0.30;;
72408;SDS011;60402;48.082;11.628;2023-12-14T00:34:18;2.15;;;0.50;;
72408;SDS011;60402;48.082;11.628;2023-12-14T00:37:03;0.65;;;0.45;;
72408;SDS011;60402;48.082;11.628;2023-12-14T00:39:49;1.35;;;0.40;;
72408;SDS011;60402;48.082;11.628;2023-12-14T00:42:34;0.65;;;0.40;;
72408;SDS011;60402;48.082;11.628;2023-12-14T00:45:20;1.77;;;0.40;;
72408;SDS011;60402;48.082;11.628;2023-12-14T00:48:06;0.60;;;0.50;;
72408;SDS011;60402;48.082;11.628;2023-12-14T00:50:51;0.88;;;0.43;;
72408;SDS011;60402;48.082;11.628;2023-12-14T00:53:37;0.65;;;0.43;;
72408;SDS011;60402;48.082;11.628;2023-12-14T00:56:23;3.63;;;0.60;;
72408;SDS011;60402;48.082;11.628;2023-12-14T00:59:08;1.38;;;0.50;;
72408;SDS011;60402;48.082;11.628;2023-12-14T01:01:54;0.93;;;0.60;;
72408;SDS011;60402;48.082;11.628;2023-12-14T01:04:39;1.30;;;0.70;;
72408;SDS011;60402;48.082;11.628;2023-12-14T01:07:25;2.80;;;0.50;;
72408;SDS011;60402;48.082;11.628;2023-12-14T01:10:11;1.23;;;0.82;;
72408;SDS011;60402;48.082;11.628;2023-12-14T01:12:56;3.30;;;0.70;;
72408;SDS011;60402;48.082;11.628;2023-12-14T01:15:42;1.15;;;0.60;;
72408;SDS011;60402;48.082;11.628;2023-12-14T01:18:27;1.63;;;0.60;;
72408;SDS011;60402;48.082;11.628;2023-12-14T01:21:13;1.42;;;0.60;;
72408;SDS011;60402;48.082;11.628;2023-12-14T01:23:59;1.20;;;0.70;;
72408;SDS011;60402;48.082;11.628;2023-12-14T01:30:24;1.67;;;0.60;;
72408;SDS011;60402;48.082;11.628;2023-12-14T01:33:10;1.17;;;0.70;;
72408;SDS011;60402;48.082;11.628;2023-12-14T01:35:55;2.42;;;0.68;;
72408;SDS011;60402;48.082;11.628;2023-12-14T01:38:41;0.85;;;0.65;;
72408;SDS011;60402;48.082;11.628;2023-12-14T01:41:27;1.73;;;0.60;;
72408;SDS011;60402;48.082;11.628;2023-12-14T01:44:12;1.67;;;0.70;;
72408;SDS011;60402;48.082;11.628;2023-12-14T01:46:58;2.30;;;0.70;;
72408;SDS011;60402;48.082;11.628;2023-12-14T01:49:44;2.05;;;0.70;;
72408;SDS011;60402;48.082;11.628;2023-12-14T01:52:29;1.65;;;0.50;;
72408;SDS011;60402;48.082;11.628;2023-12-14T01:55:15;1.55;;;0.50;;
72408;SDS011;60402;48.082;11.628;2023-12-14T01:58:00;0.88;;;0.50;;
72408;SDS011;60402;48.082;11.628;2023-12-14T02:03:31;0.50;;;0.40;;
72408;SDS011;60402;48.082;11.628;2023-12-14T02:06:17;1.20;;;0.65;;
72408;SDS011;60402;48.082;11.628;2023-12-14T02:09:03;1.52;;;0.57;;
72408;SDS011;60402;48.082;11.628;2023-12-14T02:11:49;0.95;;;0.68;;
72408;SDS011;60402;48.082;11.628;2023-12-14T02:14:34;1.92;;;0.60;;
72408;SDS011;60402;48.082;11.628;2023-12-14T02:17:20;1.02;;;0.55;;
72408;SDS011;60402;48.082;11.628;2023-12-14T02:20:06;1.30;;;0.68;;
72408;SDS011;60402;48.082;11.628;2023-12-14T02:22:55;1.27;;;0.60;;
72408;SDS011;60402;48.082;11.628;2023-12-14T02:25:41;2.42;;;0.80;;
72408;SDS011;60402;48.082;11.628;2023-12-14T02:28:26;1.30;;;0.50;;
72408;SDS011;60402;48.082;11.628;2023-12-14T02:31:12;1.40;;;0.70;;
72408;SDS011;60402;48.082;11.628;2023-12-14T02:33:58;1.00;;;0.47;;
72408;SDS011;60402;48.082;11.628;2023-12-14T02:36:43;1.65;;;0.52;;
72408;SDS011;60402;48.082;11.628;2023-12-14T02:39:29;1.30;;;0.68;;
72408;SDS011;60402;48.082;11.628;2023-12-14T02:42:15;1.00;;;0.40;;
72408;SDS011;60402;48.082;11.628;2023-12-14T02:45:01;0.60;;;0.40;;
72408;SDS011;60402;48.082;11.628;2023-12-14T02:47:47;0.60;;;0.50;;
72408;SDS011;60402;48.082;11.628;2023-12-14T02:50:35;0.98;;;0.45;;
72408;SDS011;60402;48.082;11.628;2023-12-14T02:53:20;2.33;;;0.60;;
72408;SDS011;60402;48.082;11.628;2023-12-14T02:56:06;1.27;;;0.57;;
72408;SDS011;60402;48.082;11.628;2023-12-14T02:58:52;1.10;;;0.55;;
72408;SDS011;60402;48.082;11.628;2023-12-14T03:01:39;1.00;;;0.57;;
72408;SDS011;60402;48.082;11.628;2023-12-14T03:04:24;1.58;;;0.75;;
72408;SDS011;60402;48.082;11.628;2023-12-14T03:07:10;0.65;;;0.45;;
72408;SDS011;60402;48.082;11.628;2023-12-14T03:09:56;1.85;;;0.57;;
72408;SDS011;60402;48.082;11.628;2023-12-14T03:12:42;1.13;;;0.60;;
72408;SDS011;60402;48.082;11.628;2023-12-14T03:15:27;0.98;;;0.50;;
72408;SDS011;60402;48.082;11.628;2023-12-14T03:18:13;0.73;;;0.45;;
72408;SDS011;60402;48.082;11.628;2023-12-14T03:20:58;1.17;;;0.70;;
72408;SDS011;60402;48.082;11.628;2023-12-14T03:23:44;1.67;;;0.70;;
72408;SDS011;60402;48.082;11.628;2023-12-14T03:26:30;1.25;;;0.68;;
72408;SDS011;60402;48.082;11.628;2023-12-14T03:29:16;1.75;;;0.70;;
72408;SDS011;60402;48.082;11.628;2023-12-14T03:32:02;1.55;;;0.65;;
72408;SDS011;60402;48.082;11.628;2023-12-14T03:34:47;1.15;;;0.50;;
72408;SDS011;60402;48.082;11.628;2023-12-14T03:37:33;0.50;;;0.45;;
72408;SDS011;60402;48.082;11.628;2023-12-14T03:40:19;1.10;;;0.60;;
72408;SDS011;60402;48.082;11.628;2023-12-14T03:43:05;0.63;;;0.40;;
72408;SDS011;60402;48.082;11.628;2023-12-14T03:45:51;0.95;;;0.50;;
72408;SDS011;60402;48.082;11.628;2023-12-14T03:48:36;1.10;;;0.50;;
72408;SDS011;60402;48.082;11.628;2023-12-14T03:51:22;0.85;;;0.60;;
72408;SDS011;60402;48.082;11.628;2023-12-14T03:54:08;1.08;;;0.50;;
72408;SDS011;60402;48.082;11.628;2023-12-14T03:56:53;1.38;;;0.73;;
72408;SDS011;60402;48.082;11.628;2023-12-14T03:59:39;1.17;;;0.50;;
72408;SDS011;60402;48.082;11.628;2023-12-14T04:02:25;0.70;;;0.50;;
72408;SDS011;60402;48.082;11.628;2023-12-14T04:05:11;1.05;;;0.50;;
72408;SDS011;60402;48.082;11.628;2023-12-14T04:07:57;1.08;;;0.50;;
72408;SDS011;60402;48.082;11.628;2023-12-14T04:10:42;1.20;;;0.60;;
72408;SDS011;60402;48.082;11.628;2023-12-14T04:13:28;1.00;;;0.50;;
72408;SDS011;60402;48.082;11.628;2023-12-14T04:16:14;1.00;;;0.60;;
72408;SDS011;60402;48.082;11.628;2023-12-14T04:18:59;1.42;;;0.60;;
72408;SDS011;60402;48.082;11.628;2023-12-14T04:21:45;1.20;;;0.50;;
72408;SDS011;60402;48.082;11.628;2023-12-14T04:24:31;0.77;;;0.47;;
72408;SDS011;60402;48.082;11.628;2023-12-14T04:27:16;0.88;;;0.52;;
72408;SDS011;60402;48.082;11.628;2023-12-14T04:30:02;0.73;;;0.43;;
72408;SDS011;60402;48.082;11.628;2023-12-14T04:32:50;2.33;;;0.60;;
72408;SDS011;60402;48.082;11.628;2023-12-14T04:35:36;1.95;;;0.52;;
72408;SDS011;60402;48.082;11.628;2023-12-14T04:38:21;1.70;;;0.60;;
72408;SDS011;60402;48.082;11.628;2023-12-14T04:41:07;1.60;;;0.80;;
72408;SDS011;60402;48.082;11.628;2023-12-14T04:43:53;1.25;;;0.50;;
72408;SDS011;60402;48.082;11.628;2023-12-14T04:46:39;1.77;;;0.80;;
72408;SDS011;60402;48.082;11.628;2023-12-14T04:49:25;1.40;;;0.57;;
72408;SDS011;60402;48.082;11.628;2023-12-14T04:52:10;2.17;;;0.70;;
72408;SDS011;60402;48.082;11.628;2023-12-14T04:54:56;1.48;;;0.60;;
72408;SDS011;60402;48.082;11.628;2023-12-14T04:57:41;2.47;;;0.80;;
72408;SDS011;60402;48.082;11.628;2023-12-14T05:00:27;1.05;;;0.60;;
72408;SDS011;60402;48.082;11.628;2023-12-14T05:03:13;2.33;;;0.65;;
72408;SDS011;60402;48.082;11.628;2023-12-14T05:05:58;1.02;;;0.40;;
72408;SDS011;60402;48.082;11.628;2023-12-14T05:08:44;0.60;;;0.45;;
72408;SDS011;60402;48.082;11.628;2023-12-14T05:11:30;0.75;;;0.50;;
72408;SDS011;60402;48.082;11.628;2023-12-14T05:14:16;0.47;;;0.35;;
72408;SDS011;60402;48.082;11.628;2023-12-14T05:17:01;0.65;;;0.43;;
72408;SDS011;60402;48.082;11.628;2023-12-14T05:19:47;0.73;;;0.50;;
72408;SDS011;60402;48.082;11.628;2023-12-14T05:22:33;1.27;;;0.50;;
72408;SDS011;60402;48.082;11.628;2023-12-14T05:25:18;1.40;;;0.47;;
72408;SDS011;60402;48.082;11.628;2023-12-14T05:28:04;0.55;;;0.40;;
72408;SDS011;60402;48.082;11.628;2023-12-14T05:30:49;2.05;;;0.60;;
72408;SDS011;60402;48.082;11.628;2023-12-14T05:33:38;1.63;;;0.50;;
72408;SDS011;60402;48.082;11.628;2023-12-14T05:36:24;1.45;;;0.40;;
72408;SDS011;60402;48.082;11.628;2023-12-14T05:39:10;1.83;;;0.40;;
72408;SDS011;60402;48.082;11.628;2023-12-14T05:41:56;2.08;;;0.82;;
72408;SDS011;60402;48.082;11.628;2023-12-14T05:44:41;1.88;;;0.70;;
72408;SDS011;60402;48.082;11.628;2023-12-14T05:47:27;1.58;;;0.60;;
72408;SDS011;60402;48.082;11.628;2023-12-14T05:50:12;1.83;;;0.60;;
72408;SDS011;60402;48.082;11.628;2023-12-14T05:52:58;1.38;;;0.70;;
72408;SDS011;60402;48.082;11.628;2023-12-14T05:55:44;4.20;;;0.65;;
72408;SDS011;60402;48.082;11.628;2023-12-14T05:58:30;1.15;;;0.65;;
72408;SDS011;60402;48.082;11.628;2023-12-14T06:01:18;1.95;;;0.50;;
72408;SDS011;60402;48.082;11.628;2023-12-14T06:04:04;2.83;;;0.90;;
72408;SDS011;60402;48.082;11.628;2023-12-14T06:06:50;2.03;;;0.80;;
72408;SDS011;60402;48.082;11.628;2023-12-14T06:09:35;1.83;;;0.90;;
72408;SDS011;60402;48.082;11.628;2023-12-14T06:12:21;2.72;;;1.00;;
72408;SDS011;60402;48.082;11.628;2023-12-14T06:15:07;2.70;;;1.00;;
72408;SDS011;60402;48.082;11.628;2023-12-14T06:17:53;3.78;;;0.90;;
72408;SDS011;60402;48.082;11.628;2023-12-14T06:20:39;2.60;;;0.93;;
72408;SDS011;60402;48.082;11.628;2023-12-14T06:23:26;3.97;;;1.30;;
72408;SDS011;60402;48.082;11.628;2023-12-14T06:26:14;2.58;;;1.00;;
72408;SDS011;60402;48.082;11.628;2023-12-14T06:28:59;3.40;;;1.30;;
72408;SDS011;60402;48.082;11.628;2023-12-14T06:31:45;4.22;;;1.13;;
72408;SDS011;60402;48.082;11.628;2023-12-14T06:34:31;4.22;;;1.27;;
72408;SDS011;60402;48.082;11.628;2023-12-14T06:37:17;4.55;;;1.30;;
72408;SDS011;60402;48.082;11.628;2023-12-14T06:40:03;3.00;;;1.20;;
72408;SDS011;60402;48.082;11.628;2023-12-14T06:42:49;5.78;;;1.40;;
72408;SDS011;60402;48.082;11.628;2023-12-14T06:45:38;5.18;;;1.20;;
72408;SDS011;60402;48.082;11.628;2023-12-14T06:48:23;5.65;;;1.30;;
72408;SDS011;60402;48.082;11.628;2023-12-14T06:51:09;4.20;;;1.80;;
72408;SDS011;60402;48.082;11.628;2023-12-14T06:53:55;4.75;;;1.38;;
72408;SDS011;60402;48.082;11.628;2023-12-14T06:56:40;5.30;;;1.30;;
72408;SDS011;60402;48.082;11.628;2023-12-14T06:59:26;3.05;;;1.35;;
72408;SDS011;60402;48.082;11.628;2023-12-14T07:02:12;4.03;;;1.33;;
72408;SDS011;60402;48.082;11.628;2023-12-14T07:04:57;2.92;;;1.30;;
72408;SDS011;60402;48.082;11.628;2023-12-14T07:07:43;2.80;;;1.30;;
72408;SDS011;60402;48.082;11.628;2023-12-14T07:10:29;3.55;;;1.67;;
72408;SDS011;60402;48.082;11.628;2023-12-14T07:13:14;3.72;;;1.20;;
72408;SDS011;60402;48.082;11.628;2023-12-14T07:16:00;5.10;;;1.50;;
72408;SDS011;60402;48.082;11.628;2023-12-14T07:18:46;6.03;;;1.83;;
72408;SDS011;60402;48.082;11.628;2023-12-14T07:21:32;3.65;;;1.58;;
72408;SDS011;60402;48.082;11.628;2023-12-14T07:24:18;6.00;;;2.03;;
72408;SDS011;60402;48.082;11.628;2023-12-14T07:27:03;4.15;;;1.42;;
72408;SDS011;60402;48.082;11.628;2023-12-14T07:29:49;4.63;;;1.55;;
72408;SDS011;60402;48.082;11.628;2023-12-14T07:32:35;4.93;;;1.70;;
72408;SDS011;60402;48.082;11.628;2023-12-14T07:35:21;4.25;;;1.45;;
72408;SDS011;60402;48.082;11.628;2023-12-14T07:38:06;4.47;;;1.73;;
72408;SDS011;60402;48.082;11.628;2023-12-14T07:40:52;5.18;;;1.73;;
72408;SDS011;60402;48.082;11.628;2023-12-14T07:43:38;5.55;;;2.05;;
72408;SDS011;60402;48.082;11.628;2023-12-14T07:46:24;4.50;;;1.80;;
72408;SDS011;60402;48.082;11.628;2023-12-14T07:49:09;6.53;;;2.20;;
72408;SDS011;60402;48.082;11.628;2023-12-14T07:51:55;4.80;;;1.73;;
72408;SDS011;60402;48.082;11.628;2023-12-14T07:54:41;3.80;;;1.60;;
72408;SDS011;60402;48.082;11.628;2023-12-14T07:57:27;5.95;;;2.08;;
72408;SDS011;60402;48.082;11.628;2023-12-14T08:00:13;4.78;;;1.80;;
72408;SDS011;60402;48.082;11.628;2023-12-14T08:02:59;5.70;;;2.00;;
72408;SDS011;60402;48.082;11.628;2023-12-14T08:05:45;4.35;;;1.83;;
72408;SDS011;60402;48.082;11.628;2023-12-14T08:08:31;4.18;;;1.80;;
72408;SDS011;60402;48.082;11.628;2023-12-14T08:11:17;4.65;;;1.92;;
72408;SDS011;60402;48.082;11.628;2023-12-14T08:14:03;6.82;;;2.58;;
72408;SDS011;60402;48.082;11.628;2023-12-14T08:16:48;5.57;;;2.40;;
72408;SDS011;60402;48.082;11.628;2023-12-14T08:19:34;6.47;;;1.80;;
72408;SDS011;60402;48.082;11.628;2023-12-14T08:22:19;5.43;;;1.83;;
72408;SDS011;60402;48.082;11.628;2023-12-14T08:25:07;7.93;;;2.17;;
72408;SDS011;60402;48.082;11.628;2023-12-14T08:27:52;6.15;;;2.30;;
72408;SDS011;60402;48.082;11.628;2023-12-14T08:30:38;6.47;;;2.10;;
72408;SDS011;60402;48.082;11.628;2023-12-14T08:33:24;5.25;;;1.85;;
72408;SDS011;60402;48.082;11.628;2023-12-14T08:36:10;4.97;;;2.03;;
72408;SDS011;60402;48.082;11.628;2023-12-14T08:38:55;6.90;;;2.00;;
72408;SDS011;60402;48.082;11.628;2023-12-14T08:41:41;5.00;;;2.00;;
72408;SDS011;60402;48.082;11.628;2023-12-14T08:44:27;4.65;;;1.67;;
72408;SDS011;60402;48.082;11.628;2023-12-14T08:47:12;7.28;;;2.35;;
72408;SDS011;60402;48.082;11.628;2023-12-14T08:49:58;5.65;;;2.22;;
72408;SDS011;60402;48.082;11.628;2023-12-14T08:52:44;5.20;;;2.33;;
72408;SDS011;60402;48.082;11.628;2023-12-14T08:55:29;5.50;;;2.30;;
72408;SDS011;60402;48.082;11.628;2023-12-14T08:58:15;6.07;;;2.20;;
72408;SDS011;60402;48.082;11.628;2023-12-14T09:01:01;5.18;;;2.00;;
72408;SDS011;60402;48.082;11.628;2023-12-14T09:03:46;6.07;;;1.80;;
72408;SDS011;60402;48.082;11.628;2023-12-14T09:06:32;6.50;;;2.35;;
72408;SDS011;60402;48.082;11.628;2023-12-14T09:09:18;5.82;;;2.05;;
72408;SDS011;60402;48.082;11.628;2023-12-14T09:12:04;5.68;;;2.30;;
72408;SDS011;60402;48.082;11.628;2023-12-14T09:14:50;5.45;;;1.98;;
72408;SDS011;60402;48.082;11.628;2023-12-14T09:17:36;5.28;;;2.33;;
72408;SDS011;60402;48.082;11.628;2023-12-14T09:20:21;6.22;;;2.20;;
72408;SDS011;60402;48.082;11.628;2023-12-14T09:23:07;3.95;;;1.88;;
72408;SDS011;60402;48.082;11.628;2023-12-14T09:25:53;4.38;;;1.83;;
72408;SDS011;60402;48.082;11.628;2023-12-14T09:28:39;4.80;;;2.15;;
72408;SDS011;60402;48.082;11.628;2023-12-14T09:31:24;5.18;;;2.33;;
72408;SDS011;60402;48.082;11.628;2023-12-14T09:34:10;4.55;;;1.95;;
72408;SDS011;60402;48.082;11.628;2023-12-14T09:36:56;6.03;;;1.77;;
72408;SDS011;60402;48.082;11.628;2023-12-14T09:39:42;4.43;;;1.90;;
72408;SDS011;60402;48.082;11.628;2023-12-14T09:42:28;5.70;;;1.63;;
72408;SDS011;60402;48.082;11.628;2023-12-14T09:45:19;5.07;;;2.17;;
72408;SDS011;60402;48.082;11.628;2023-12-14T09:48:09;5.40;;;2.47;;
72408;SDS011;60402;48.082;11.628;2023-12-14T09:50:56;3.85;;;1.73;;
72408;SDS011;60402;48.082;11.628;2023-12-14T09:53:42;4.47;;;1.67;;
72408;SDS011;60402;48.082;11.628;2023-12-14T09:56:28;5.03;;;1.75;;
72408;SDS011;60402;48.082;11.628;2023-12-14T09:59:14;6.10;;;2.05;;
72408;SDS011;60402;48.082;11.628;2023-12-14T10:02:10;3.95;;;1.80;;
72408;SDS011;60402;48.082;11.628;2023-12-14T10:04:56;5.07;;;1.83;;
72408;SDS011;60402;48.082;11.628;2023-12-14T10:07:42;4.30;;;1.73;;
72408;SDS011;60402;48.082;11.628;2023-12-14T10:10:29;4.80;;;1.67;;
72408;SDS011;60402;48.082;11.628;2023-12-14T10:13:15;4.90;;;1.85;;
72408;SDS011;60402;48.082;11.628;2023-12-14T10:16:00;5.05;;;1.50;;
72408;SDS011;60402;48.082;11.628;2023-12-14T10:18:46;4.43;;;1.50;;
72408;SDS011;60402;48.082;11.628;2023-12-14T10:21:32;2.85;;;1.20;;
72408;SDS011;60402;48.082;11.628;2023-12-14T10:24:17;4.88;;;1.25;;
72408;SDS011;60402;48.082;11.628;2023-12-14T10:27:06;3.30;;;1.20;;
72408;SDS011;60402;48.082;11.628;2023-12-14T10:29:52;3.85;;;1.20;;
72408;SDS011;60402;48.082;11.628;2023-12-14T10:32:38;2.83;;;1.00;;
72408;SDS011;60402;48.082;11.628;2023-12-14T10:35:24;3.05;;;1.13;;
72408;SDS011;60402;48.082;11.628;2023-12-14T10:38:10;2.10;;;0.98;;
72408;SDS011;60402;48.082;11.628;2023-12-14T10:40:56;2.58;;;1.02;;
72408;SDS011;60402;48.082;11.628;2023-12-14T10:43:43;2.08;;;0.82;;
72408;SDS011;60402;48.082;11.628;2023-12-14T10:46:30;2.22;;;1.00;;
72408;SDS011;60402;48.082;11.628;2023-12-14T10:49:16;2.08;;;0.93;;
72408;SDS011;60402;48.082;11.628;2023-12-14T10:52:03;1.75;;;0.68;;
72408;SDS011;60402;48.082;11.628;2023-12-14T10:54:53;2.03;;;0.80;;
72408;SDS011;60402;48.082;11.628;2023-12-14T10:57:43;2.65;;;1.00;;
72408;SDS011;60402;48.082;11.628;2023-12-14T11:00:31;1.08;;;0.70;;
72408;SDS011;60402;48.082;11.628;2023-12-14T11:03:17;1.67;;;0.80;;
72408;SDS011;60402;48.082;11.628;2023-12-14T11:06:03;3.28;;;1.08;;
72408;SDS011;60402;48.082;11.628;2023-12-14T11:09:04;1.80;;;0.80;;
72408;SDS011;60402;48.082;11.628;2023-12-14T11:14:42;1.88;;;0.90;;
72408;SDS011;60402;48.082;11.628;2023-12-14T11:17:28;2.75;;;0.90;;
72408;SDS011;60402;48.082;11.628;2023-12-14T11:20:24;2.67;;;1.27;;
72408;SDS011;60402;48.082;11.628;2023-12-14T11:23:13;1.67;;;0.80;;
72408;SDS011;60402;48.082;11.628;2023-12-14T11:26:03;2.65;;;1.10;;
72408;SDS011;60402;48.082;11.628;2023-12-14T11:28:50;3.38;;;1.02;;
72408;SDS011;60402;48.082;11.628;2023-12-14T11:31:37;1.80;;;0.90;;
72408;SDS011;60402;48.082;11.628;2023-12-14T11:34:24;2.50;;;1.00;;
72408;SDS011;60402;48.082;11.628;2023-12-14T11:37:10;2.83;;;1.15;;
72408;SDS011;60402;48.082;11.628;2023-12-14T11:39:56;2.85;;;1.05;;
72408;SDS011;60402;48.082;11.628;2023-12-14T11:42:41;2.20;;;1.02;;
72408;SDS011;60402;48.082;11.628;2023-12-14T11:45:27;3.50;;;1.40;;
72408;SDS011;60402;48.082;11.628;2023-12-14T11:48:13;3.28;;;1.30;;
72408;SDS011;60402;48.082;11.628;2023-12-14T11:50:59;4.25;;;0.98;;
72408;SDS011;60402;48.082;11.628;2023-12-14T11:53:46;2.63;;;0.88;;
72408;SDS011;60402;48.082;11.628;2023-12-14T11:56:34;3.20;;;1.10;;
72408;SDS011;60402;48.082;11.628;2023-12-14T11:59:19;2.08;;;0.98;;
72408;SDS011;60402;48.082;11.628;2023-12-14T12:02:06;3.33;;;1.10;;
72408;SDS011;60402;48.082;11.628;2023-12-14T12:04:52;3.38;;;0.98;;
72408;SDS011;60402;48.082;11.628;2023-12-14T12:07:37;2.28;;;1.10;;
72408;SDS011;60402;48.082;11.628;2023-12-14T12:10:23;2.72;;;0.95;;
72408;SDS011;60402;48.082;11.628;2023-12-14T12:13:14;1.77;;;0.80;;
72408;SDS011;60402;48.082;11.628;2023-12-14T12:16:01;1.70;;;0.90;;
72408;SDS011;60402;48.082;11.628;2023-12-14T12:18:47;3.50;;;0.98;;
72408;SDS011;60402;48.082;11.628;2023-12-14T12:21:32;2.97;;;1.13;;
72408;SDS011;60402;48.082;11.628;2023-12-14T12:24:18;1.70;;;0.77;;
72408;SDS011;60402;48.082;11.628;2023-12-14T12:27:04;2.10;;;0.93;;
72408;SDS011;60402;48.082;11.628;2023-12-14T12:29:49;3.67;;;1.30;;
72408;SDS011;60402;48.082;11.628;2023-12-14T12:32:38;2.10;;;0.75;;
72408;SDS011;60402;48.082;11.628;2023-12-14T12:35:24;1.98;;;0.77;;
72408;SDS011;60402;48.082;11.628;2023-12-14T12:38:15;3.30;;;1.13;;
72408;SDS011;60402;48.082;11.628;2023-12-14T12:41:01;2.25;;;1.08;;
72408;SDS011;60402;48.082;11.628;2023-12-14T12:43:47;2.38;;;1.15;;
72408;SDS011;60402;48.082;11.628;2023-12-14T12:46:33;7.30;;;2.75;;
72408;SDS011;60402;48.082;11.628;2023-12-14T12:49:19;4.57;;;1.58;;
72408;SDS011;60402;48.082;11.628;2023-12-14T12:52:05;3.13;;;0.98;;
72408;SDS011;60402;48.082;11.628;2023-12-14T12:54:51;2.30;;;1.00;;
72408;SDS011;60402;48.082;11.628;2023-12-14T12:57:37;1.92;;;0.95;;
72408;SDS011;60402;48.082;11.628;2023-12-14T13:00:22;3.25;;;1.40;;
72408;SDS011;60402;48.082;11.628;2023-12-14T13:03:08;2.83;;;0.98;;
72408;SDS011;60402;48.082;11.628;2023-12-14T13:05:55;3.65;;;1.00;;
72408;SDS011;60402;48.082;11.628;2023-12-14T13:08:41;3.28;;;1.00;;
72408;SDS011;60402;48.082;11.628;2023-12-14T13:11:26;4.05;;;1.00;;
72408;SDS011;60402;48.082;11.628;2023-12-14T13:14:12;2.78;;;1.00;;
72408;SDS011;60402;48.082;11.628;2023-12-14T13:16:59;2.47;;;1.13;;
72408;SDS011;60402;48.082;11.628;2023-12-14T13:19:45;2.17;;;0.77;;
72408;SDS011;60402;48.082;11.628;2023-12-14T13:22:30;4.80;;;1.17;;
72408;SDS011;60402;48.082;11.628;2023-12-14T13:25:16;3.25;;;0.90;;
72408;SDS011;60402;48.082;11.628;2023-12-14T13:28:02;2.05;;;0.90;;
72408;SDS011;60402;48.082;11.628;2023-12-14T13:30:49;3.35;;;0.70;;
72408;SDS011;60402;48.082;11.628;2023-12-14T13:33:35;1.83;;;0.75;;
72408;SDS011;60402;48.082;11.628;2023-12-14T13:36:21;3.17;;;1.00;;
72408;SDS011;60402;48.082;11.628;2023-12-14T13:39:06;2.90;;;0.90;;
72408;SDS011;60402;48.082;11.628;2023-12-14T13:41:52;2.40;;;0.85;;
72408;SDS011;60402;48.082;11.628;2023-12-14T13:44:38;1.70;;;0.77;;
72408;SDS011;60402;48.082;11.628;2023-12-14T13:47:24;2.25;;;0.88;;
72408;SDS011;60402;48.082;11.628;2023-12-14T13:50:09;2.50;;;0.80;;
72408;SDS011;60402;48.082;11.628;2023-12-14T13:52:55;2.72;;;0.98;;
72408;SDS011;60402;48.082;11.628;2023-12-14T13:55:41;2.28;;;1.00;;
72408;SDS011;60402;48.082;11.628;2023-12-14T13:58:27;1.63;;;0.80;;
72408;SDS011;60402;48.082;11.628;2023-12-14T14:01:13;2.08;;;1.00;;
72408;SDS011;60402;48.082;11.628;2023-12-14T14:03:58;3.47;;;1.10;;
72408;SDS011;60402;48.082;11.628;2023-12-14T14:06:44;3.40;;;1.20;;
72408;SDS011;60402;48.082;11.628;2023-12-14T14:09:30;2.13;;;0.75;;
72408;SDS011;60402;48.082;11.628;2023-12-14T14:12:15;2.47;;;0.93;;
72408;SDS011;60402;48.082;11.628;2023-12-14T14:15:01;1.40;;;0.82;;
72408;SDS011;60402;48.082;11.628;2023-12-14T14:17:47;1.95;;;0.90;;
72408;SDS011;60402;48.082;11.628;2023-12-14T14:20:37;3.08;;;1.00;;
72408;SDS011;60402;48.082;11.628;2023-12-14T14:23:23;1.88;;;0.80;;
72408;SDS011;60402;48.082;11.628;2023-12-14T14:26:08;1.83;;;0.80;;
72408;SDS011;60402;48.082;11.628;2023-12-14T14:28:54;2.60;;;1.00;;
72408;SDS011;60402;48.082;11.628;2023-12-14T14:31:45;1.63;;;0.70;;
72408;SDS011;60402;48.082;11.628;2023-12-14T14:34:30;2.42;;;1.08;;
72408;SDS011;60402;48.082;11.628;2023-12-14T14:37:16;1.95;;;0.95;;
72408;SDS011;60402;48.082;11.628;2023-12-14T14:40:02;2.85;;;0.98;;
72408;SDS011;60402;48.082;11.628;2023-12-14T14:42:49;2.28;;;1.05;;
72408;SDS011;60402;48.082;11.628;2023-12-14T14:45:35;6.90;;;1.38;;
72408;SDS011;60402;48.082;11.628;2023-12-14T14:48:23;2.97;;;1.20;;
72408;SDS011;60402;48.082;11.628;2023-12-14T14:51:08;2.75;;;1.05;;
72408;SDS011;60402;48.082;11.628;2023-12-14T14:53:54;4.03;;;1.17;;
72408;SDS011;60402;48.082;11.628;2023-12-14T14:56:40;4.90;;;1.50;;
72408;SDS011;60402;48.082;11.628;2023-12-14T14:59:26;4.25;;;1.40;;
72408;SDS011;60402;48.082;11.628;2023-12-14T15:02:12;5.00;;;1.80;;
72408;SDS011;60402;48.082;11.628;2023-12-14T15:04:58;5.28;;;1.90;;
72408;SDS011;60402;48.082;11.628;2023-12-14T15:07:44;4.57;;;1.77;;
72408;SDS011;60402;48.082;11.628;2023-12-14T15:10:29;6.22;;;2.35;;
72408;SDS011;60402;48.082;11.628;2023-12-14T15:13:15;6.70;;;2.38;;
72408;SDS011;60402;48.082;11.628;2023-12-14T15:16:02;5.35;;;2.10;;
72408;SDS011;60402;48.082;11.628;2023-12-14T15:18:48;4.20;;;1.65;;
72408;SDS011;60402;48.082;11.628;2023-12-14T15:21:34;3.53;;;1.40;;
72408;SDS011;60402;48.082;11.628;2023-12-14T15:24:20;4.65;;;1.52;;
72408;SDS011;60402;48.082;11.628;2023-12-14T15:27:05;4.95;;;1.85;;
72408;SDS011;60402;48.082;11.628;2023-12-14T15:29:54;5.88;;;1.77;;
72408;SDS011;60402;48.082;11.628;2023-12-14T15:32:39;4.60;;;1.83;;
72408;SDS011;60402;48.082;11.628;2023-12-14T15:40:38;4.47;;;1.73;;
72408;SDS011;60402;48.082;11.628;2023-12-14T15:43:30;3.60;;;1.67;;
72408;SDS011;60402;48.082;11.628;2023-12-14T15:46:15;5.07;;;1.90;;
72408;SDS011;60402;48.082;11.628;2023-12-14T15:49:01;5.63;;;1.92;;
72408;SDS011;60402;48.082;11.628;2023-12-14T15:51:47;4.80;;;1.80;;
72408;SDS011;60402;48.082;11.628;2023-12-14T15:54:33;6.20;;;1.92;;
72408;SDS011;60402;48.082;11.628;2023-12-14T15:57:19;5.22;;;1.83;;
72408;SDS011;60402;48.082;11.628;2023-12-14T16:00:05;5.35;;;2.22;;
72408;SDS011;60402;48.082;11.628;2023-12-14T16:02:54;5.32;;;1.90;;
72408;SDS011;60402;48.082;11.628;2023-12-14T16:05:42;4.70;;;1.75;;
72408;SDS011;60402;48.082;11.628;2023-12-14T16:08:28;4.43;;;2.08;;
72408;SDS011;60402;48.082;11.628;2023-12-14T16:11:14;6.10;;;2.05;;
72408;SDS011;60402;48.082;11.628;2023-12-14T16:14:00;6.43;;;2.70;;
72408;SDS011;60402;48.082;11.628;2023-12-14T16:16:45;4.82;;;2.10;;
72408;SDS011;60402;48.082;11.628;2023-12-14T16:19:31;6.05;;;2.55;;
72408;SDS011;60402;48.082;11.628;2023-12-14T16:22:17;7.32;;;2.28;;
72408;SDS011;60402;48.082;11.628;2023-12-14T16:25:03;6.28;;;2.53;;
72408;SDS011;60402;48.082;11.628;2023-12-14T16:27:53;6.22;;;2.58;;
72408;SDS011;60402;48.082;11.628;2023-12-14T16:30:38;7.55;;;3.47;;
72408;SDS011;60402;48.082;11.628;2023-12-14T16:33:24;7.43;;;2.70;;
72408;SDS011;60402;48.082;11.628;2023-12-14T16:36:12;5.10;;;2.10;;
72408;SDS011;60402;48.082;11.628;2023-12-14T16:38:59;6.78;;;2.35;;
72408;SDS011;60402;48.082;11.628;2023-12-14T16:41:51;5.15;;;2.33;;